Time;durP1;ratioP1;P1;durP2;ratioP2;P2;SDS_P1;SDS_P2;PMS_P1;PMS_P2;Temp;Humidity;BMP_temperature;BMP_pressure;BME280_temperature;BME280_humidity;BME280_pressure;Samples;Min_cycle;Max_cycle;Signal;HPM_P1;HPM_P2
2022/08/05 00:04:03;;;;;;;6.13;5.50;;;24.20;99.90;;;;;;10462209;28;20300;-80
2022/08/05 00:09:25;;;;;;;6.13;5.32;;;23.80;99.90;;;;;;10477226;28;20226;-80
2022/08/05 00:14:46;;;;;;;7.53;5.25;;;23.80;99.90;;;;;;10499723;28;20263;-80
2022/08/05 00:20:08;;;;;;;5.43;4.82;;;23.80;99.90;;;;;;10467587;28;20248;-80
2022/08/05 00:25:29;;;;;;;5.97;5.35;;;23.80;99.90;;;;;;10458565;28;20250;-80
2022/08/05 00:30:51;;;;;;;6.60;5.55;;;23.80;99.90;;;;;;10442264;28;20189;-80
2022/08/05 00:36:13;;;;;;;6.53;5.13;;;23.70;99.90;;;;;;10440858;28;20254;-80
2022/08/05 00:41:35;;;;;;;8.45;5.28;;;23.80;99.90;;;;;;10427007;28;20545;-79
2022/08/05 00:46:56;;;;;;;8.40;5.72;;;23.70;99.90;;;;;;10429708;28;20237;-81
2022/08/05 00:52:19;;;;;;;7.18;5.57;;;23.70;99.90;;;;;;10454626;28;20200;-80
2022/08/05 00:57:40;;;;;;;7.63;6.28;;;23.60;1.00;;;;;;10481638;28;20241;-81
2022/08/05 01:03:01;;;;;;;9.45;5.85;;;23.50;1.00;;;;;;10466949;28;20556;-80
2022/08/05 01:08:23;;;;;;;9.15;6.35;;;23.50;1.00;;;;;;10481463;28;20247;-81
2022/08/05 01:14:05;;;;;;;8.27;5.57;;;23.40;1.00;;;;;;10481309;28;20272;-82
2022/08/05 01:19:42;;;;;;;6.65;5.38;;;23.40;1.00;;;;;;10466543;28;20235;-81
2022/08/05 01:25:12;;;;;;;6.70;5.90;;;23.40;1.00;;;;;;10461003;28;20419;-81
2022/08/05 01:30:38;;;;;;;5.93;5.25;;;23.30;1.00;;;;;;10438609;28;20535;-81
2022/08/05 01:36:05;;;;;;;6.50;5.25;;;23.30;1.00;;;;;;10457889;28;20203;-81
2022/08/05 01:41:31;;;;;;;7.00;5.40;;;23.20;1.00;;;;;;10439761;28;20200;-81
2022/08/05 01:46:54;;;;;;;7.47;5.40;;;23.20;1.00;;;;;;10450302;28;20235;-80
2022/08/05 01:52:17;;;;;;;6.80;5.15;;;23.10;1.00;;;;;;10480424;28;20234;-80
2022/08/05 01:57:42;;;;;;;5.90;5.30;;;23.10;1.00;;;;;;10478859;28;20192;-80
2022/08/05 02:03:10;;;;;;;5.15;4.60;;;23.00;1.00;;;;;;10464507;28;20509;-80
2022/08/05 02:08:32;;;;;;;5.60;4.55;;;23.00;1.00;;;;;;10478292;28;20533;-80
2022/08/05 02:14:07;;;;;;;5.80;4.90;;;23.00;1.00;;;;;;10463638;28;20283;-80
2022/08/05 02:19:35;;;;;;;6.32;4.95;;;22.90;1.00;;;;;;10477849;28;20270;-80
2022/08/05 02:25:14;;;;;;;9.25;5.10;;;22.80;29.40;;;;;;10477648;28;20195;-80
2022/08/05 02:30:46;;;;;;;13.45;5.70;;;22.80;99.90;;;;;;10463943;28;20219;-80
2022/08/05 02:36:11;;;;;;;9.43;5.55;;;22.70;99.90;;;;;;10477148;28;20368;-80
2022/08/05 02:41:33;;;;;;;6.43;5.07;;;22.70;99.90;;;;;;10477534;28;20238;-80
2022/08/05 02:46:56;;;;;;;7.20;5.10;;;22.60;1.00;;;;;;10478354;28;20215;-81
2022/08/05 02:52:19;;;;;;;9.13;5.38;;;22.60;1.00;;;;;;10476884;28;20200;-80
2022/08/05 02:57:41;;;;;;;5.88;5.18;;;22.50;1.00;;;;;;10462644;28;20195;-80
2022/08/05 03:03:03;;;;;;;7.63;5.30;;;22.40;1.00;;;;;;10493646;28;20402;-80
2022/08/05 03:08:25;;;;;;;6.63;5.45;;;22.30;1.00;;;;;;10493079;28;20234;-80
2022/08/05 03:13:46;;;;;;;5.70;5.20;;;22.20;99.90;;;;;;10476855;28;20267;-79
2022/08/05 03:19:08;;;;;;;7.30;6.18;;;22.10;99.90;;;;;;10492713;28;20250;-82
2022/08/05 03:24:29;;;;;;;7.00;5.20;;;22.10;1.00;;;;;;10450895;28;20389;-79
2022/08/05 03:29:50;;;;;;;7.47;5.43;;;22.00;1.00;;;;;;10462162;28;20249;-80
2022/08/05 03:35:12;;;;;;;6.50;5.80;;;22.00;14.00;;;;;;10461646;28;20195;-80
2022/08/05 03:40:38;;;;;;;6.97;4.88;;;22.00;99.90;;;;;;10461576;28;20195;-80
2022/08/05 03:46:00;;;;;;;7.05;5.25;;;22.00;99.90;;;;;;10465579;28;20230;-79
2022/08/05 03:51:29;;;;;;;5.63;5.13;;;21.90;99.90;;;;;;10483316;28;20195;-80
2022/08/05 03:56:51;;;;;;;7.00;6.00;;;21.90;1.00;;;;;;10484327;28;20282;-79
2022/08/05 04:02:14;;;;;;;6.00;5.40;;;21.90;1.00;;;;;;10469351;28;20196;-80
2022/08/05 04:07:37;;;;;;;6.72;5.53;;;21.90;1.00;;;;;;10483059;28;20223;-80
2022/08/05 04:12:59;;;;;;;9.43;6.22;;;21.90;99.90;;;;;;10499677;28;20491;-80
2022/08/05 04:18:25;;;;;;;6.10;5.25;;;21.90;99.90;;;;;;10468438;28;20247;-79
2022/08/05 04:23:47;;;;;;;7.18;5.47;;;21.90;99.90;;;;;;10472298;28;20502;-80
2022/08/05 04:29:09;;;;;;;7.20;5.78;;;22.00;99.90;;;;;;10483341;28;20314;-79
2022/08/05 04:34:30;;;;;;;7.18;5.55;;;22.10;17.20;;;;;;10510481;28;20377;-80
2022/08/05 04:39:55;;;;;;;8.13;5.55;;;22.20;1.00;;;;;;10468531;28;20192;-82
2022/08/05 04:45:16;;;;;;;7.85;5.80;;;22.20;1.00;;;;;;10470024;28;20192;-82
2022/08/05 04:50:43;;;;;;;10.13;5.60;;;22.20;2.10;;;;;;10468632;28;20469;-82
2022/08/05 04:56:08;;;;;;;8.45;5.40;;;22.30;1.00;;;;;;10468584;28;20271;-82
2022/08/05 05:01:30;;;;;;;6.13;5.22;;;22.40;1.00;;;;;;10454978;28;20199;-82
2022/08/05 05:06:51;;;;;;;6.13;5.53;;;22.40;1.00;;;;;;10469840;28;20216;-82
2022/08/05 05:12:12;;;;;;;8.50;4.88;;;22.50;99.90;;;;;;10483411;28;20246;-81
2022/08/05 05:17:38;;;;;;;10.18;5.30;;;22.60;99.90;;;;;;10483241;28;20227;-80
2022/08/05 05:23:03;;;;;;;5.05;4.55;;;22.70;99.90;;;;;;10480445;28;20363;-79
2022/08/05 05:28:26;;;;;;;7.90;5.10;;;22.90;99.90;;;;;;10466481;28;20541;-80
2022/08/05 05:33:48;;;;;;;5.38;4.88;;;23.20;1.00;;;;;;10479680;28;20226;-80
2022/08/05 05:39:09;;;;;;;5.32;4.18;;;23.30;99.90;;;;;;10465939;28;20199;-79
2022/08/05 05:44:31;;;;;;;4.97;4.10;;;23.50;1.00;;;;;;10466509;28;20503;-80
2022/08/05 05:49:54;;;;;;;6.72;4.57;;;23.60;1.00;;;;;;10508004;28;20570;-80
2022/08/05 05:55:17;;;;;;;4.53;3.50;;;23.80;1.00;;;;;;10458928;28;20494;-80
2022/08/05 06:00:38;;;;;;;5.38;3.90;;;24.00;99.90;;;;;;10496013;28;20203;-80
2022/08/05 06:05:59;;;;;;;7.70;3.55;;;24.20;99.90;;;;;;10478513;28;20191;-79
2022/08/05 06:11:20;;;;;;;4.75;3.63;;;24.60;1.00;;;;;;10479988;28;20204;-80
2022/08/05 06:16:42;;;;;;;8.82;3.63;;;24.60;1.00;;;;;;10465185;28;20237;-80
2022/08/05 06:22:04;;;;;;;11.25;3.45;;;25.00;1.00;;;;;;10466600;28;20195;-80
2022/08/05 06:27:25;;;;;;;3.58;3.28;;;25.60;99.90;;;;;;10465524;28;20302;-80
2022/08/05 06:32:47;;;;;;;5.38;4.10;;;26.10;99.90;;;;;;10480553;28;20486;-81
2022/08/05 06:38:08;;;;;;;3.90;3.50;;;26.60;12.20;;;;;;10480197;28;20188;-80
2022/08/05 06:43:30;;;;;;;7.55;4.32;;;27.00;1.00;;;;;;10492689;28;20196;-80
2022/08/05 06:48:52;;;;;;;4.63;3.55;;;27.20;1.00;;;;;;10479840;28;20219;-81
2022/08/05 06:54:14;;;;;;;5.35;3.08;;;27.70;1.00;;;;;;10446865;28;20499;-80
2022/08/05 06:59:35;;;;;;;6.10;3.53;;;28.30;1.00;;;;;;10480696;28;20202;-80
2022/08/05 07:04:56;;;;;;;5.53;3.90;;;29.00;99.90;;;;;;10479047;28;20205;-81
2022/08/05 07:10:17;;;;;;;6.65;3.60;;;29.50;99.90;;;;;;10473747;28;20247;-84
2022/08/05 07:21:18;;;;;;;8.57;3.42;;;30.10;20.30;;;;;;10440882;28;20235;-84
2022/08/05 07:26:44;;;;;;;6.15;3.42;;;30.50;1.00;;;;;;10441132;28;20196;-84
2022/08/05 07:32:06;;;;;;;6.05;3.47;;;30.90;1.00;;;;;;10502493;28;20414;-84
2022/08/05 07:37:27;;;;;;;4.00;3.38;;;31.20;1.00;;;;;;10484996;28;20271;-89
2022/08/05 07:42:48;;;;;;;12.18;3.78;;;31.70;1.00;;;;;;10496224;28;20208;-82
2022/08/05 07:48:10;;;;;;;30.27;6.80;;;32.40;1.00;;;;;;10495705;28;20314;-84
2022/08/05 07:53:31;;;;;;;4.07;3.15;;;32.80;1.00;;;;;;10481718;28;20235;-85
2022/08/05 07:58:53;;;;;;;4.53;3.90;;;33.00;1.00;;;;;;10464285;28;20210;-84
2022/08/05 08:04:15;;;;;;;4.05;3.42;;;32.60;1.00;;;;;;10480984;28;20381;-85
2022/08/05 08:09:38;;;;;;;17.55;4.10;;;32.40;1.00;;;;;;10448943;28;20227;-90
2022/08/05 08:15:00;;;;;;;21.70;4.43;;;32.60;1.00;;;;;;10462316;28;20295;-82
2022/08/05 08:20:23;;;;;;;19.52;4.80;;;32.90;1.00;;;;;;10448052;28;20291;-81
2022/08/05 08:25:45;;;;;;;4.65;3.20;;;33.40;1.00;;;;;;10492783;28;20208;-81
2022/08/05 08:31:07;;;;;;;9.27;3.55;;;33.70;99.90;;;;;;10451361;28;20238;-83
2022/08/05 08:36:28;;;;;;;6.38;3.38;;;34.50;99.90;;;;;;10460867;28;20219;-85
2022/08/05 08:42:03;;;;;;;5.88;3.63;;;34.80;99.90;;;;;;10493407;28;20196;-85
2022/08/05 08:47:26;;;;;;;6.18;3.45;;;35.00;99.90;;;;;;10491796;28;20239;-84
2022/08/05 08:52:55;;;;;;;6.63;3.10;;;35.00;99.90;;;;;;10491419;28;20362;-85
2022/08/05 08:58:17;;;;;;;10.60;3.20;;;35.20;99.90;;;;;;10474687;28;20350;-85
2022/08/05 09:03:40;;;;;;;9.07;3.13;;;35.10;99.90;;;;;;10446125;28;20525;-85
2022/08/05 09:09:02;;;;;;;4.85;3.28;;;35.40;99.90;;;;;;10418554;28;20236;-83
2022/08/05 09:14:23;;;;;;;6.95;3.35;;;35.10;99.90;;;;;;10465319;28;20218;-84
2022/08/05 09:19:44;;;;;;;4.97;3.33;;;35.50;99.90;;;;;;10415606;28;1289810;-83
2022/08/05 09:25:06;;;;;;;7.20;3.40;;;35.60;99.90;;;;;;10490885;28;20200;-85
2022/08/05 09:30:27;;;;;;;14.68;5.32;;;36.00;99.90;;;;;;10437021;28;20243;-85
2022/08/05 09:36:07;;;;;;;10.75;3.33;;;36.50;99.90;;;;;;10419541;28;20470;-85
2022/08/05 09:41:28;;;;;;;4.55;3.13;;;36.70;99.90;;;;;;10483134;28;20200;-86
2022/08/05 09:47:05;;;;;;;7.43;3.42;;;36.50;99.90;;;;;;10475000;28;20399;-84
2022/08/05 09:52:33;;;;;;;4.10;3.30;;;36.80;99.90;;;;;;10474597;28;20200;-81
2022/08/05 09:57:55;;;;;;;6.90;2.85;;;37.00;99.90;;;;;;10473072;28;20727;-82
2022/08/05 10:03:16;;;;;;;7.93;2.55;;;37.40;99.90;;;;;;10473308;28;20364;-81
2022/08/05 10:08:38;;;;;;;9.40;4.53;;;37.40;99.90;;;;;;10489659;28;20232;-81
2022/08/05 10:14:19;;;;;;;9.05;3.60;;;37.40;99.90;;;;;;10452071;28;20316;-84
2022/08/05 10:19:41;;;;;;;36.47;4.68;;;37.50;99.90;;;;;;10458510;28;20248;-84
2022/08/05 10:25:02;;;;;;;4.90;2.83;;;37.80;99.90;;;;;;10472693;28;20200;-84
2022/08/05 10:30:24;;;;;;;4.03;2.78;;;37.70;99.10;;;;;;10489916;28;20247;-87
2022/08/05 10:35:46;;;;;;;4.55;3.08;;;37.90;95.30;;;;;;10458215;28;20219;-84
2022/08/05 10:41:21;;;;;;;9.98;2.97;;;37.80;93.80;;;;;;10458586;28;20243;-82
2022/08/05 10:46:51;;;;;;;3.40;2.60;;;38.30;89.20;;;;;;10500643;28;20254;-85
2022/08/05 10:52:40;;;;;;;116.45;10.38;;;38.40;76.10;;;;;;10449592;28;20200;-87
2022/08/05 10:58:09;;;;;;;2.92;2.60;;;38.70;77.20;;;;;;10458116;28;20237;-84
2022/08/05 11:03:31;;;;;;;4.72;2.83;;;38.60;58.70;;;;;;10487748;28;20266;-85
2022/08/05 11:09:16;;;;;;;8.20;3.20;;;38.20;47.40;;;;;;10487740;28;20227;-82
2022/08/05 11:14:38;;;;;;;5.65;2.75;;;38.30;42.20;;;;;;10431295;28;20243;-81
2022/08/05 11:20:40;;;;;;;8.57;2.60;;;38.30;42.20;;;;;;10455593;28;20431;-82
2022/08/05 11:26:22;;;;;;;4.88;3.30;;;38.30;31.50;;;;;;10472128;28;20215;-82
2022/08/05 11:31:44;;;;;;;10.35;3.42;;;38.40;29.40;;;;;;10471938;28;20220;-84
2022/08/05 11:37:05;;;;;;;6.28;3.05;;;38.20;32.50;;;;;;10449149;28;20448;-83
2022/08/05 11:42:27;;;;;;;5.82;2.50;;;37.50;20.40;;;;;;10402395;28;20541;-83
2022/08/05 11:47:48;;;;;;;3.72;3.33;;;37.70;21.70;;;;;;10399278;28;20227;-85
2022/08/05 11:53:10;;;;;;;2.92;2.60;;;37.90;36.30;;;;;;10388239;28;20212;-82
2022/08/05 11:58:40;;;;;;;7.45;3.00;;;37.60;23.40;;;;;;10442032;28;20223;-84
2022/08/05 12:04:01;;;;;;;11.90;3.53;;;37.60;15.90;;;;;;10442234;28;20219;-83
2022/08/05 12:09:25;;;;;;;4.93;3.17;;;37.60;12.90;;;;;;10403045;28;20527;-84
2022/08/05 12:14:47;;;;;;;3.20;2.75;;;37.80;9.80;;;;;;10381535;28;20267;-81
2022/08/05 12:20:08;;;;;;;3.42;2.90;;;37.70;4.10;;;;;;10431162;28;20247;-85
2022/08/05 12:25:30;;;;;;;10.80;3.28;;;37.70;6.00;;;;;;10436522;28;20387;-83
2022/08/05 12:30:52;;;;;;;8.60;2.67;;;37.50;1.20;;;;;;10408235;28;20263;-85
2022/08/05 12:36:14;;;;;;;7.75;2.55;;;37.00;1.00;;;;;;10421929;28;20200;-81
2022/08/05 12:41:38;;;;;;;5.18;2.95;;;37.50;2.60;;;;;;10435390;28;20245;-81
2022/08/05 12:46:59;;;;;;;8.20;2.67;;;37.20;1.00;;;;;;10399810;28;20228;-81
2022/08/05 12:52:21;;;;;;;3.13;2.75;;;37.00;3.80;;;;;;10393708;28;20208;-80
2022/08/05 12:57:45;;;;;;;6.88;2.55;;;36.90;6.10;;;;;;10449133;28;20199;-80
2022/08/05 13:03:07;;;;;;;6.03;3.00;;;37.00;1.00;;;;;;10476442;28;20257;-83
2022/08/05 13:08:29;;;;;;;9.02;3.00;;;36.80;1.00;;;;;;10403293;28;20308;-80
2022/08/05 13:13:55;;;;;;;4.38;2.38;;;36.80;1.00;;;;;;10441343;28;20209;-87
2022/08/05 13:19:19;;;;;;;5.85;2.63;;;36.80;1.00;;;;;;10394607;28;20260;-80
2022/08/05 13:24:40;;;;;;;4.03;2.50;;;36.60;1.00;;;;;;10394392;28;20471;-85
2022/08/05 13:30:02;;;;;;;4.03;2.40;;;36.30;1.00;;;;;;10391647;28;20312;-81
2022/08/05 13:35:24;;;;;;;2.55;2.25;;;36.60;1.00;;;;;;10392688;28;20193;-81
2022/08/05 13:40:45;;;;;;;12.85;5.55;;;36.60;1.00;;;;;;10392585;28;20208;-80
2022/08/05 13:46:07;;;;;;;88.35;8.65;;;36.50;1.00;;;;;;10378404;28;20388;-82
2022/08/05 13:51:31;;;;;;;10.85;3.28;;;36.40;1.00;;;;;;10395075;28;20291;-84
2022/08/05 13:56:53;;;;;;;8.45;3.00;;;36.30;1.00;;;;;;10431968;28;20219;-83
2022/08/05 14:02:15;;;;;;;4.85;2.40;;;35.90;1.00;;;;;;10445815;28;20216;-81
2022/08/05 14:07:42;;;;;;;10.52;3.00;;;35.60;1.00;;;;;;10430389;28;20430;-80
2022/08/05 14:13:07;;;;;;;5.85;2.78;;;35.60;1.00;;;;;;10431767;28;20228;-80
2022/08/05 14:18:29;;;;;;;3.17;2.80;;;35.50;1.00;;;;;;10391725;28;20304;-82
2022/08/05 14:23:50;;;;;;;4.32;2.63;;;35.20;1.00;;;;;;10398792;28;20200;-83
2022/08/05 14:29:12;;;;;;;2.95;2.75;;;35.30;1.00;;;;;;10395839;28;20248;-82
2022/08/05 14:34:34;;;;;;;8.55;2.88;;;35.00;1.00;;;;;;10397544;28;20285;-81
2022/08/05 14:39:56;;;;;;;4.93;3.42;;;34.60;1.00;;;;;;10417315;28;20212;-81
2022/08/05 14:45:17;;;;;;;5.82;2.78;;;34.50;1.00;;;;;;10407846;28;20386;-84
2022/08/05 14:50:38;;;;;;;8.63;4.32;;;34.50;1.00;;;;;;10374097;28;20232;-80
2022/08/05 14:55:59;;;;;;;7.90;4.88;;;34.30;25.50;;;;;;10396376;28;20252;-79
2022/08/05 15:01:21;;;;;;;7.00;5.22;;;33.90;34.40;;;;;;10430853;28;20192;-80
2022/08/05 15:06:44;;;;;;;9.93;5.57;;;33.60;40.50;;;;;;10429145;28;20239;-80
2022/08/05 15:12:08;;;;;;;9.55;5.72;;;33.40;56.70;;;;;;10440239;28;20275;-79
2022/08/05 15:17:29;;;;;;;16.70;5.68;;;33.20;67.30;;;;;;10406889;28;20290;-80
2022/08/05 15:22:51;;;;;;;38.23;7.73;;;32.90;71.50;;;;;;10408039;28;20474;-80
2022/08/05 15:28:13;;;;;;;8.02;5.55;;;32.40;70.80;;;;;;10407934;28;20217;-79
2022/08/05 15:33:35;;;;;;;9.60;5.75;;;32.00;80.20;;;;;;10423001;28;20503;-80
2022/08/05 15:38:56;;;;;;;15.60;6.82;;;31.90;91.30;;;;;;10434797;28;20201;-79
2022/08/05 15:44:17;;;;;;;13.15;6.65;;;31.50;92.60;;;;;;10427877;28;20267;-79
2022/08/05 15:49:38;;;;;;;16.80;6.60;;;31.20;97.00;;;;;;10442708;28;20522;-79
2022/08/05 15:55:08;;;;;;;9.60;5.60;;;31.00;99.50;;;;;;10447495;28;20262;-79
2022/08/05 16:00:29;;;;;;;11.20;5.97;;;30.90;99.90;;;;;;10469491;28;20246;-79
2022/08/05 16:05:55;;;;;;;7.97;6.20;;;30.70;99.90;;;;;;10500638;28;20385;-79
2022/08/05 16:11:16;;;;;;;12.23;6.50;;;30.50;99.90;;;;;;10457137;28;20289;-78
2022/08/05 16:16:38;;;;;;;9.48;6.13;;;30.30;99.90;;;;;;10400873;28;20413;-78
2022/08/05 16:22:00;;;;;;;8.40;6.68;;;30.20;99.90;;;;;;10416997;28;20205;-79
2022/08/05 16:27:23;;;;;;;9.57;6.55;;;30.00;99.90;;;;;;10403247;28;20211;-81
2022/08/05 16:32:44;;;;;;;7.15;6.38;;;29.70;99.90;;;;;;10409349;28;20189;-81
2022/08/05 16:38:05;;;;;;;12.45;6.30;;;29.60;99.90;;;;;;10442067;28;20192;-80
2022/08/05 16:43:30;;;;;;;11.90;6.07;;;29.30;99.90;;;;;;10440718;28;20434;-80
2022/08/05 16:48:51;;;;;;;6.90;4.95;;;29.10;99.90;;;;;;10427021;28;20247;-79
2022/08/05 16:54:12;;;;;;;11.68;5.75;;;28.80;99.90;;;;;;10413760;28;20220;-79
2022/08/05 16:59:34;;;;;;;15.88;5.53;;;28.50;99.90;;;;;;10426451;28;20194;-81
2022/08/05 17:04:55;;;;;;;6.70;4.80;;;28.30;99.90;;;;;;10456536;28;20212;-79
2022/08/05 17:10:16;;;;;;;23.27;5.68;;;28.00;99.90;;;;;;10441458;28;20228;-81
2022/08/05 17:15:38;;;;;;;11.05;4.60;;;27.70;99.90;;;;;;10399908;28;20280;-80
2022/08/05 17:20:59;;;;;;;25.23;4.78;;;27.60;99.90;;;;;;10399206;28;20221;-80
2022/08/05 17:26:20;;;;;;;8.80;5.18;;;27.30;1.00;;;;;;10398820;28;20193;-81
2022/08/05 17:31:42;;;;;;;15.80;6.90;;;;;;;;;;10414406;28;20244;-78
2022/08/05 17:37:03;;;;;;;9.98;6.68;;;25.50;1.00;;;;;;10411474;28;20209;-79
2022/08/05 17:42:26;;;;;;;7.93;6.07;;;25.20;1.00;;;;;;10383463;28;20205;-78
2022/08/05 17:47:50;;;;;;;10.82;7.00;;;24.40;28.60;;;;;;10383798;28;20271;-79
2022/08/05 17:53:13;;;;;;;6.53;5.70;;;24.20;99.90;;;;;;10396932;28;20363;-80
2022/08/05 17:58:36;;;;;;;7.35;5.70;;;24.10;99.90;;;;;;10450144;28;20204;-79
2022/08/05 18:03:57;;;;;;;6.40;5.65;;;24.00;84.50;;;;;;10478275;28;20203;-79
2022/08/05 18:09:19;;;;;;;6.72;5.78;;;23.90;63.40;;;;;;10478387;28;20261;-78
2022/08/05 18:14:41;;;;;;;7.97;6.13;;;23.70;99.90;;;;;;10405751;28;20227;-78
2022/08/05 18:20:03;;;;;;;9.63;6.88;;;23.60;99.90;;;;;;10382214;28;20567;-80
2022/08/05 18:25:25;;;;;;;6.65;5.80;;;23.70;34.10;;;;;;10395811;28;20189;-79
2022/08/05 18:30:47;;;;;;;9.10;6.60;;;23.80;90.70;;;;;;10412121;28;20240;-80
2022/08/05 18:36:09;;;;;;;9.10;6.35;;;23.80;46.20;;;;;;10402385;28;20196;-80
2022/08/05 18:41:32;;;;;;;8.10;6.95;;;23.80;30.50;;;;;;10395787;28;20201;-80
2022/08/05 18:46:53;;;;;;;11.13;7.88;;;23.80;67.70;;;;;;10395098;28;20197;-80
2022/08/05 18:52:34;;;;;;;12.63;9.77;;;23.70;18.20;;;;;;10394797;28;20231;-79
2022/08/05 18:57:56;;;;;;;6.95;6.28;;;23.50;37.30;;;;;;10437777;28;20222;-80
2022/08/05 19:03:17;;;;;;;8.07;6.13;;;23.50;55.20;;;;;;10448827;28;20279;-80
2022/08/05 19:08:38;;;;;;;7.63;5.45;;;23.50;54.50;;;;;;10477691;28;20496;-79
2022/08/05 19:14:00;;;;;;;6.85;6.13;;;23.60;24.10;;;;;;10411970;28;20280;-79
2022/08/05 19:19:21;;;;;;;10.07;6.68;;;23.50;27.80;;;;;;10403660;28;20225;-78
2022/08/05 19:24:43;;;;;;;9.90;6.25;;;23.60;99.90;;;;;;10419193;28;20271;-78
2022/08/05 19:30:06;;;;;;;8.50;6.57;;;23.30;99.90;;;;;;10403498;28;20221;-78
2022/08/05 19:35:27;;;;;;;6.43;5.82;;;23.20;99.90;;;;;;10402579;28;20209;-79
2022/08/05 19:40:49;;;;;;;9.23;6.63;;;23.10;99.90;;;;;;10435156;28;20196;-78
2022/08/05 19:46:10;;;;;;;9.15;6.25;;;23.10;99.90;;;;;;10421149;28;20255;-78
2022/08/05 19:51:33;;;;;;;12.02;6.07;;;22.70;99.90;;;;;;10415200;28;20235;-78
2022/08/05 19:56:54;;;;;;;6.03;5.45;;;22.60;99.90;;;;;;10427070;28;20219;-78
2022/08/05 20:02:15;;;;;;;7.75;5.35;;;22.50;99.90;;;;;;10500259;28;20272;-78
2022/08/05 20:07:36;;;;;;;5.72;5.00;;;22.50;99.90;;;;;;10484389;28;20203;-79
2022/08/05 20:12:58;;;;;;;4.85;4.00;;;;;;;;;;10462099;28;20304;-78
2022/08/05 20:18:19;;;;;;;6.30;4.38;;;22.30;99.90;;;;;;10400552;28;20532;-79
2022/08/05 20:23:41;;;;;;;6.00;4.38;;;22.30;99.90;;;;;;10401073;28;20192;-78
2022/08/05 20:29:02;;;;;;;5.50;4.72;;;22.20;99.90;;;;;;10400829;28;20217;-78
2022/08/05 20:34:24;;;;;;;7.40;4.57;;;22.40;99.90;;;;;;10419374;28;20211;-79
2022/08/05 20:39:45;;;;;;;6.72;4.60;;;22.40;99.90;;;;;;10427030;28;20526;-79
2022/08/05 20:45:08;;;;;;;5.78;4.68;;;22.30;99.90;;;;;;10427245;28;20250;-78
2022/08/05 20:50:29;;;;;;;7.68;5.07;;;22.20;99.90;;;;;;10441561;28;20530;-78
2022/08/05 20:55:51;;;;;;;5.43;4.68;;;22.10;99.90;;;;;;10451849;28;20198;-78
2022/08/05 21:01:12;;;;;;;7.30;5.68;;;22.10;99.90;;;;;;10467480;28;20406;-79
2022/08/05 21:06:34;;;;;;;5.40;4.90;;;22.10;99.90;;;;;;10453397;28;20203;-78
2022/08/05 21:11:55;;;;;;;7.88;5.53;;;22.10;99.90;;;;;;10446358;28;20585;-79
2022/08/05 21:17:16;;;;;;;10.07;5.78;;;22.10;99.90;;;;;;10398286;28;20237;-78
2022/08/05 21:22:38;;;;;;;5.55;4.80;;;22.00;99.90;;;;;;10415070;28;20239;-78
2022/08/05 21:28:01;;;;;;;5.78;5.07;;;21.90;99.90;;;;;;10414855;28;20203;-79
2022/08/05 21:33:23;;;;;;;6.95;5.28;;;21.90;99.90;;;;;;10408877;28;20224;-78
2022/08/05 21:38:44;;;;;;;5.82;4.90;;;22.00;99.90;;;;;;10438831;28;20192;-78
2022/08/05 21:44:05;;;;;;;7.78;4.90;;;22.10;99.90;;;;;;10438299;28;20208;-79
2022/08/05 21:49:27;;;;;;;5.25;4.55;;;22.10;99.90;;;;;;10439195;28;20224;-79
2022/08/05 21:54:48;;;;;;;6.13;5.00;;;22.00;99.90;;;;;;10440813;28;20200;-79
2022/08/05 22:00:11;;;;;;;6.03;4.47;;;21.90;99.90;;;;;;10465070;28;20275;-78
2022/08/05 22:05:32;;;;;;;5.63;5.03;;;21.80;99.90;;;;;;10480212;28;20196;-79
2022/08/05 22:10:54;;;;;;;5.88;4.50;;;21.80;99.90;;;;;;10459322;28;20227;-78
2022/08/05 22:16:15;;;;;;;8.02;5.47;;;21.80;99.90;;;;;;10398115;28;20381;-79
2022/08/05 22:21:45;;;;;;;9.95;5.43;;;21.70;99.90;;;;;;10397699;28;20197;-79
2022/08/05 22:32:46;;;;;;;5.57;4.00;;;21.50;99.90;;;;;;10417800;28;20240;-78
2022/08/05 22:38:08;;;;;;;5.88;4.30;;;21.40;99.90;;;;;;10422756;28;20263;-79
2022/08/05 22:43:29;;;;;;;8.18;3.83;;;21.30;99.90;;;;;;10422214;28;20196;-79
2022/08/05 22:48:51;;;;;;;6.35;4.65;;;21.20;99.90;;;;;;10421804;28;20211;-79
2022/08/05 22:54:12;;;;;;;6.10;3.45;;;21.10;99.90;;;;;;10421993;28;20202;-79
2022/08/05 22:59:34;;;;;;;5.47;3.90;;;21.10;99.90;;;;;;10493507;28;20223;-78
2022/08/05 23:04:56;;;;;;;6.68;3.95;;;21.00;99.90;;;;;;10462783;28;20370;-79
2022/08/05 23:10:19;;;;;;;5.13;3.47;;;20.90;99.90;;;;;;10448690;28;20231;-78
2022/08/05 23:15:41;;;;;;;4.22;3.20;;;20.80;94.70;;;;;;10429143;28;20205;-77
2022/08/05 23:21:02;;;;;;;6.57;3.40;;;20.70;99.90;;;;;;10435295;28;20227;-80
2022/08/05 23:26:23;;;;;;;5.10;2.65;;;20.70;97.40;;;;;;10407333;28;20506;-79
2022/08/05 23:31:45;;;;;;;4.53;3.35;;;20.60;99.90;;;;;;10421448;28;20224;-80
2022/08/05 23:37:06;;;;;;;6.32;2.80;;;20.60;98.70;;;;;;10394476;28;20189;-80
2022/08/05 23:42:27;;;;;;;5.88;2.80;;;20.50;99.90;;;;;;10380130;28;20283;-79
2022/08/05 23:47:48;;;;;;;2.83;2.55;;;20.60;96.10;;;;;;10393904;28;20193;-79
2022/08/05 23:53:09;;;;;;;4.25;2.75;;;20.50;94.10;;;;;;10393874;28;20296;-79
2022/08/05 23:58:31;;;;;;;6.55;2.67;;;20.50;99.90;;;;;;10459470;28;20513;-79
